WZZ4937 EDDH-EPGD
Flight info
| Callsign | WZZ4937 |
|---|---|
| Flight time | N/A |
| Altitude | 35000 |
| Route | RAMAR6G/33 RAMAR L23 GEVNI DCT BINKA DCT LUXAL L730 KOSEX |
| Aircraft | A321/M-SDE3FGHIRWY/LB1 |
Departure
| Time | N/A |
|---|---|
| Airport | Hamburg Helmut Schmidt Airport (EDDH) |
Arrival
| Time | 2026-04-30 19:13 |
|---|---|
| Airport | Gdańsk Lech Wałęsa Airport (EPGD) |
| Time | Latitude | Longitude | Altitude | Speed | Heading |
|---|---|---|---|---|---|
| 2026-04-30 18:27 | 53.75956 | 14.25430 | 35468 ft | 429 kts | 85° |
| 2026-04-30 18:28 | 53.76548 | 14.35328 | 35457 ft | 422 kts | 77° |
| 2026-04-30 18:28 | 53.77701 | 14.50076 | 35456 ft | 421 kts | 78° |
| 2026-04-30 18:29 | 53.79180 | 14.69733 | 35432 ft | 421 kts | 78° |
| 2026-04-30 18:30 | 53.80639 | 14.89334 | 35441 ft | 418 kts | 77° |
| 2026-04-30 18:31 | 53.81710 | 15.03973 | 35435 ft | 418 kts | 78° |
| 2026-04-30 18:32 | 53.82744 | 15.18562 | 35433 ft | 418 kts | 78° |
| 2026-04-30 18:33 | 53.83772 | 15.33270 | 35433 ft | 419 kts | 78° |
| 2026-04-30 18:33 | 53.84787 | 15.47964 | 35432 ft | 419 kts | 78° |
| 2026-04-30 18:34 | 53.85777 | 15.62674 | 35433 ft | 419 kts | 78° |
| 2026-04-30 18:35 | 53.86431 | 15.72487 | 35433 ft | 419 kts | 78° |
| 2026-04-30 18:35 | 53.87074 | 15.82240 | 35432 ft | 419 kts | 78° |
| 2026-04-30 18:36 | 53.87726 | 15.92138 | 33587 ft | 427 kts | 78° |
| 2026-04-30 18:36 | 53.88052 | 15.97156 | 32518 ft | 426 kts | 78° |
| 2026-04-30 18:36 | 53.88665 | 16.06965 | 30992 ft | 413 kts | 78° |
| 2026-04-30 18:37 | 53.88964 | 16.11778 | 30101 ft | 408 kts | 78° |
| 2026-04-30 18:37 | 53.89255 | 16.16497 | 29553 ft | 395 kts | 78° |
| 2026-04-30 18:37 | 53.89530 | 16.21056 | 29060 ft | 387 kts | 78° |
| 2026-04-30 18:37 | 53.89820 | 16.25690 | 28426 ft | 403 kts | 78° |
| 2026-04-30 18:38 | 53.90121 | 16.30448 | 27777 ft | 408 kts | 78° |
| 2026-04-30 18:38 | 53.90418 | 16.35236 | 27151 ft | 407 kts | 78° |
| 2026-04-30 18:38 | 53.90705 | 16.39994 | 26538 ft | 404 kts | 78° |
| 2026-04-30 18:38 | 53.90984 | 16.44721 | 25928 ft | 401 kts | 78° |
| 2026-04-30 18:39 | 53.91288 | 16.49325 | 25393 ft | 394 kts | 75° |
| 2026-04-30 18:39 | 53.91945 | 16.53762 | 24821 ft | 384 kts | 66° |
| 2026-04-30 18:39 | 53.93001 | 16.57861 | 24252 ft | 376 kts | 57° |
| 2026-04-30 18:39 | 53.94378 | 16.61596 | 23626 ft | 371 kts | 53° |
| 2026-04-30 18:40 | 53.95797 | 16.65244 | 22977 ft | 367 kts | 53° |
| 2026-04-30 18:40 | 53.97183 | 16.68853 | 22336 ft | 363 kts | 53° |
| 2026-04-30 18:40 | 53.98556 | 16.72446 | 21699 ft | 360 kts | 54° |
| 2026-04-30 18:40 | 53.99911 | 16.75994 | 21093 ft | 356 kts | 54° |
| 2026-04-30 18:41 | 54.01253 | 16.79507 | 20495 ft | 353 kts | 54° |
| 2026-04-30 18:41 | 54.02583 | 16.82985 | 19900 ft | 349 kts | 54° |
| 2026-04-30 18:41 | 54.03899 | 16.86426 | 19347 ft | 346 kts | 54° |
| 2026-04-30 18:41 | 54.05207 | 16.89858 | 18862 ft | 343 kts | 54° |
| 2026-04-30 18:42 | 54.06483 | 16.93212 | 18306 ft | 341 kts | 54° |
| 2026-04-30 18:42 | 54.08935 | 17.00082 | 17198 ft | 340 kts | 62° |
| 2026-04-30 18:42 | 54.09723 | 17.03878 | 16659 ft | 342 kts | 71° |
| 2026-04-30 18:45 | 54.12041 | 17.42898 | 11368 ft | 304 kts | 79° |
| 2026-04-30 18:45 | 54.12228 | 17.46441 | 10852 ft | 297 kts | 79° |
| 2026-04-30 18:45 | 54.12412 | 17.49907 | 10464 ft | 287 kts | 79° |
| 2026-04-30 18:46 | 54.12584 | 17.53199 | 10340 ft | 273 kts | 78° |
| 2026-04-30 18:46 | 54.12897 | 17.56361 | 10291 ft | 270 kts | 74° |
| 2026-04-30 18:46 | 54.13238 | 17.59504 | 10149 ft | 269 kts | 74° |
| 2026-04-30 18:46 | 54.13575 | 17.62633 | 10019 ft | 268 kts | 75° |
| 2026-04-30 18:47 | 54.13908 | 17.65768 | 9882 ft | 268 kts | 75° |
| 2026-04-30 18:47 | 54.14236 | 17.68891 | 9746 ft | 268 kts | 75° |
| 2026-04-30 18:47 | 54.14564 | 17.72034 | 9613 ft | 268 kts | 75° |
| 2026-04-30 18:47 | 54.14891 | 17.75169 | 9501 ft | 270 kts | 75° |
| 2026-04-30 18:48 | 54.15220 | 17.78325 | 9374 ft | 270 kts | 75° |
| 2026-04-30 18:48 | 54.15548 | 17.81481 | 9242 ft | 270 kts | 75° |
| 2026-04-30 18:48 | 54.15875 | 17.84629 | 9103 ft | 270 kts | 75° |
| 2026-04-30 18:48 | 54.16202 | 17.87788 | 8972 ft | 269 kts | 75° |
| 2026-04-30 18:49 | 54.16527 | 17.90928 | 8843 ft | 269 kts | 75° |
| 2026-04-30 18:49 | 54.16851 | 17.94065 | 8711 ft | 269 kts | 75° |
| 2026-04-30 18:49 | 54.17175 | 17.97213 | 8585 ft | 269 kts | 75° |
| 2026-04-30 18:49 | 54.17496 | 18.00353 | 8455 ft | 269 kts | 75° |
| 2026-04-30 18:50 | 54.17812 | 18.03458 | 8327 ft | 269 kts | 76° |
| 2026-04-30 18:50 | 54.18129 | 18.06595 | 8201 ft | 268 kts | 76° |
| 2026-04-30 18:50 | 54.18446 | 18.09734 | 8071 ft | 268 kts | 76° |
| 2026-04-30 18:50 | 54.18762 | 18.12867 | 7868 ft | 268 kts | 76° |
| 2026-04-30 18:51 | 54.19077 | 18.15995 | 7613 ft | 267 kts | 76° |
| 2026-04-30 18:51 | 54.19392 | 18.19119 | 7368 ft | 267 kts | 76° |
| 2026-04-30 18:51 | 54.19707 | 18.22234 | 7121 ft | 266 kts | 76° |
| 2026-04-30 18:51 | 54.20020 | 18.25350 | 6866 ft | 266 kts | 76° |
| 2026-04-30 18:52 | 54.20332 | 18.28469 | 6618 ft | 266 kts | 76° |
| 2026-04-30 18:52 | 54.20642 | 18.31582 | 6364 ft | 266 kts | 76° |
| 2026-04-30 18:52 | 54.20848 | 18.33645 | 6197 ft | 266 kts | 77° |
| 2026-04-30 18:52 | 54.21154 | 18.36751 | 5939 ft | 265 kts | 77° |
| 2026-04-30 18:53 | 54.21459 | 18.39863 | 5682 ft | 265 kts | 77° |
| 2026-04-30 18:53 | 54.21766 | 18.42966 | 5424 ft | 265 kts | 77° |
| 2026-04-30 18:53 | 54.22168 | 18.47033 | 5087 ft | 256 kts | 77° |
| 2026-04-30 18:53 | 54.22454 | 18.49970 | 4825 ft | 245 kts | 77° |
| 2026-04-30 18:54 | 54.22634 | 18.51850 | 4658 ft | 238 kts | 77° |
| 2026-04-30 18:54 | 54.22900 | 18.54624 | 4415 ft | 231 kts | 77° |
| 2026-04-30 18:54 | 54.23161 | 18.57330 | 4168 ft | 231 kts | 77° |
| 2026-04-30 18:54 | 54.23417 | 18.59995 | 3918 ft | 230 kts | 77° |
| 2026-04-30 18:55 | 54.23674 | 18.62689 | 3667 ft | 230 kts | 77° |
| 2026-04-30 18:55 | 54.24186 | 18.68060 | 3154 ft | 228 kts | 77° |
| 2026-04-30 18:55 | 54.24444 | 18.70729 | 3009 ft | 228 kts | 75° |
| 2026-04-30 18:56 | 54.26319 | 18.74535 | 3019 ft | 216 kts | 21° |
| 2026-04-30 18:56 | 54.27722 | 18.75435 | 3030 ft | 216 kts | 17° |
| 2026-04-30 18:56 | 54.29150 | 18.76244 | 3038 ft | 215 kts | 11° |
| 2026-04-30 18:57 | 54.31531 | 18.74042 | 3011 ft | 217 kts | 290° |
| 2026-04-30 18:57 | 54.31671 | 18.71553 | 3008 ft | 202 kts | 277° |
| 2026-04-30 18:57 | 54.32048 | 18.69422 | 2994 ft | 179 kts | 301° |
| 2026-04-30 18:58 | 54.33020 | 18.65688 | 2586 ft | 168 kts | 296° |
| 2026-04-30 18:58 | 54.33472 | 18.63876 | 2394 ft | 159 kts | 296° |
| 2026-04-30 18:58 | 54.33895 | 18.62176 | 2181 ft | 151 kts | 296° |
| 2026-04-30 18:59 | 54.34666 | 18.59078 | 1775 ft | 134 kts | 296° |
| 2026-04-30 19:00 | 54.35695 | 18.54812 | 1256 ft | 133 kts | 294° |
| 2026-04-30 19:00 | 54.36063 | 18.53383 | 1102 ft | 132 kts | 296° |
| 2026-04-30 19:00 | 54.36787 | 18.50533 | 770 ft | 132 kts | 294° |
| 2026-04-30 19:01 | 54.37508 | 18.47641 | 745 ft | 142 kts | 294° |
| 2026-04-30 19:01 | 54.37921 | 18.45978 | 1441 ft | 154 kts | 294° |
| 2026-04-30 19:02 | 54.38667 | 18.42611 | 2433 ft | 162 kts | 294° |
| 2026-04-30 19:02 | 54.39114 | 18.38309 | 2787 ft | 216 kts | 257° |
| 2026-04-30 19:03 | 54.36914 | 18.34634 | 3003 ft | 234 kts | 208° |
| 2026-04-30 19:03 | 54.33810 | 18.34917 | 3013 ft | 232 kts | 141° |
| 2026-04-30 19:04 | 54.31911 | 18.39245 | 3004 ft | 228 kts | 117° |
| 2026-04-30 19:04 | 54.30303 | 18.43931 | 3014 ft | 228 kts | 117° |
| 2026-04-30 19:05 | 54.28721 | 18.48624 | 3009 ft | 227 kts | 117° |
| 2026-04-30 19:05 | 54.27140 | 18.53310 | 3015 ft | 227 kts | 117° |
| 2026-04-30 19:06 | 54.25560 | 18.57991 | 3021 ft | 227 kts | 117° |
| 2026-04-30 19:06 | 54.24767 | 18.60337 | 3018 ft | 227 kts | 117° |
| 2026-04-30 19:06 | 54.23193 | 18.64982 | 3021 ft | 227 kts | 117° |
| 2026-04-30 19:07 | 54.21793 | 18.69773 | 3039 ft | 222 kts | 94° |
| 2026-04-30 19:07 | 54.22020 | 18.72325 | 3040 ft | 213 kts | 58° |
| 2026-04-30 19:08 | 54.24367 | 18.74735 | 3043 ft | 204 kts | 9° |
| 2026-04-30 19:08 | 54.27176 | 18.75480 | 3037 ft | 204 kts | 7° |
| 2026-04-30 19:08 | 54.28588 | 18.75526 | 3033 ft | 203 kts | 350° |
| 2026-04-30 19:09 | 54.31001 | 18.73158 | 3037 ft | 207 kts | 311° |
| 2026-04-30 19:09 | 54.31698 | 18.70992 | 3045 ft | 210 kts | 296° |
| 2026-04-30 19:09 | 54.32263 | 18.68721 | 2941 ft | 202 kts | 296° |
| 2026-04-30 19:10 | 54.33375 | 18.64270 | 2470 ft | 202 kts | 295° |
| 2026-04-30 19:10 | 54.34364 | 18.60285 | 1954 ft | 161 kts | 296° |
| 2026-04-30 19:11 | 54.34781 | 18.58612 | 1762 ft | 144 kts | 296° |
| 2026-04-30 19:11 | 54.35519 | 18.55534 | 1401 ft | 138 kts | 292° |
| 2026-04-30 19:11 | 54.35899 | 18.54026 | 1220 ft | 137 kts | 297° |
| 2026-04-30 19:12 | 54.36289 | 18.52547 | 1008 ft | 137 kts | 294° |
| 2026-04-30 19:12 | 54.36662 | 18.51037 | 815 ft | 136 kts | 294° |
| 2026-04-30 19:12 | 54.37035 | 18.49538 | 602 ft | 135 kts | 294° |
| 2026-04-30 19:13 | 54.37663 | 18.46998 | 456 ft | 78 kts | 294° |
| 2026-04-30 19:13 | 54.37923 | 18.45984 | 457 ft | 32 kts | 302° |
| 2026-04-30 19:13 | 54.38038 | 18.45781 | 455 ft | 20 kts | 322° |
| 2026-04-30 19:14 | 54.38121 | 18.45704 | 455 ft | 11 kts | 359° |
| 2026-04-30 19:14 | 54.38141 | 18.45807 | 455 ft | 11 kts | 113° |
| 2026-04-30 19:14 | 54.38110 | 18.45918 | 458 ft | 10 kts | 112° |
| 2026-04-30 19:14 | 54.38087 | 18.46019 | 459 ft | 9 kts | 112° |
| 2026-04-30 19:15 | 54.38094 | 18.46082 | 459 ft | 5 kts | 13° |
| 2026-04-30 19:15 | 54.38177 | 18.46142 | 458 ft | 8 kts | 76° |
| 2026-04-30 19:15 | 54.38161 | 18.46241 | 458 ft | 10 kts | 111° |
| 2026-04-30 19:16 | 54.38133 | 18.46357 | 458 ft | 11 kts | 114° |
| 2026-04-30 19:16 | 54.38099 | 18.46492 | 459 ft | 13 kts | 112° |
| 2026-04-30 19:16 | 54.38095 | 18.46604 | 460 ft | 3 kts | 34° |
| 2026-04-30 19:17 | 54.38110 | 18.46615 | 460 ft | 1 kts | 22° |
| 2026-04-30 19:17 | 54.38118 | 18.46621 | 460 ft | 0 kts | 22° |